Last 7 Days

Suisun Valley (SSV)

Hourly Data | America/Los_Angeles
as of 10/22/18 11:15 AM PDT
Date Time Temp (°F) RH (%) Dew Pt (°F) Wind Spd ( mph) Wind Dir (°) Wind Gust ( mph) Wind Gst Dir (°) Latest Rain (In) Solar Rad Tot Hr (Cal/cm2) Daily Rain (In) Min Temp (°F) Max Temp (°F) Day
10/22/18 0900 46.0 92 43.8 0.0 N | 1 1.6 NNE | 13 0.00 12 0.00 38.5 52.0 10/22/18
10/22/18 0800 40.2 93 38.3 0.1 NW | 321 1.7 NW | 314 0.00 1 0.00 38.5 46.4 10/22/18
10/22/18 0700 39.8 93 37.8 0.4 NNW | 342 2.7 NNW | 342 0.00 0 0.00 38.5 46.4 10/22/18
10/22/18 0600 40.2 92 38.0 0.0 N | 1 1.6 N | 2 0.00 0 0.00 39.2 46.4 10/22/18
10/22/18 0500 40.9 92 38.7 0.5 NNW | 342 2.7 NW | 307 0.00 0 0.00 39.9 46.4 10/22/18
10/22/18 0400 40.9 91 38.4 0.2 NW | 324 2.1 NNW | 328 0.00 0 0.00 39.9 46.4 10/22/18
10/22/18 0300 41.7 90 38.9 0.0 WNW | 286 1.2 WNW | 286 0.00 0 0.00 40.9 46.4 10/22/18
10/22/18 0200 42.8 88 39.6 0.2 NW | 324 2.1 WNW | 283 0.00 0 0.00 42.2 46.4 10/22/18
10/22/18 0100 44.5 85 40.4 0.1 NNW | 344 1.6 NNW | 336 0.00 0 0.00 42.9 46.4 10/22/18
10/22/18 0000 46.2 84 41.7 0.3 NNW | 338 2.1 NNW | 335 0.00 0 0.00 39.6 81.3 10/21/18
10/21/18 2300 47.8 79 41.8 0.1 NNW | 334 1.6 NW | 314 0.00 0 0.00 39.6 81.3 10/21/18
10/21/18 2200 51.1 76 43.6 0.3 NNW | 336 2.1 NW | 322 0.00 0 0.00 39.6 81.3 10/21/18
10/21/18 2100 53.9 72 45.0 0.7 WNW | 302 3.4 NNW | 335 0.00 0 0.00 39.6 81.3 10/21/18
10/21/18 2000 58.2 66 47.0 0.2 NNW | 334 2.2 NW | 314 0.00 0 0.00 39.6 81.3 10/21/18
10/21/18 1900 69.7 46 47.7 3.2 WSW | 252 10.6 WNW | 283 0.00 1 0.00 39.6 81.3 10/21/18
10/21/18 1800 76.3 34 45.7 5.4 WSW | 242 11.1 WSW | 257 0.00 13 0.00 39.6 81.3 10/21/18
10/21/18 1700 79.1 27 42.3 6.7 WSW | 251 12.3 WSW | 249 0.00 27 0.00 39.6 81.3 10/21/18
10/21/18 1600 80.2 26 42.0 6.2 WSW | 244 11.1 WSW | 256 0.00 39 0.00 39.6 81.3 10/21/18
10/21/18 1500 79.6 30 45.3 4.5 S | 174 9.3 SSW | 203 0.00 47 0.00 39.6 81.2 10/21/18
10/21/18 1400 75.8 35 46.1 4.0 SE | 138 6.8 ESE | 112 0.00 51 0.00 39.6 77.3 10/21/18
10/21/18 1300 73.0 40 46.9 3.9 SE | 137 6.8 SE | 129 0.00 51 0.00 39.6 75.2 10/21/18
10/21/18 1200 68.6 47 47.4 3.0 SE | 146 6.8 SE | 139 0.00 46 0.00 39.6 71.0 10/21/18
10/21/18 1100 64.0 55 47.6 1.9 SE | 136 5.1 S | 175 0.00 37 0.00 39.6 66.6 10/21/18
10/21/18 1000 57.1 62 44.2 0.4 S | 174 2.9 SW | 232 0.00 26 0.00 39.6 60.3 10/21/18
10/21/18 0900 46.2 84 41.6 0.0 ENE | 60 1.1 NE | 38 0.00 13 0.00 39.6 52.6 10/21/18
10/21/18 0800 40.6 90 37.7 0.2 NW | 322 1.7 WNW | 302 0.00 1 0.00 39.6 46.6 10/21/18
10/21/18 0700 40.0 88 36.9 0.2 NNW | 335 1.9 NNW | 346 0.00 0 0.00 39.6 46.6 10/21/18
10/21/18 0600 40.9 87 37.5 0.4 N | 355 4.1 ENE | 67 0.00 0 0.00 40.4 46.6 10/21/18
10/21/18 0500 41.7 86 37.9 0.1 NNW | 346 1.6 NNW | 346 0.00 0 0.00 41.1 46.6 10/21/18
10/21/18 0400 42.2 85 38.0 0.1 NW | 318 1.4 N | 0 0.00 0 0.00 41.7 46.6 10/21/18
10/21/18 0300 43.8 82 38.7 0.0 NNW | 332 1.4 N | 2 0.00 0 0.00 42.7 46.6 10/21/18
10/21/18 0200 45.3 79 39.2 0.5 NW | 324 2.9 NW | 310 0.00 0 0.00 44.7 46.6 10/21/18
10/21/18 0100 46.0 76 39.0 0.4 NNW | 341 2.1 NNE | 31 0.00 0 0.00 44.8 46.6 10/21/18
10/21/18 0000 47.3 73 39.0 0.3 NNW | 334 2.9 NNW | 334 0.00 0 0.00 44.3 85.9 10/20/18
10/20/18 2300 49.0 69 39.1 0.0 NNW | 342 1.4 NNW | 338 0.00 0 0.00 44.3 85.9 10/20/18
10/20/18 2200 52.1 64 40.1 0.4 NNW | 342 2.1 NNW | 333 0.00 0 0.00 44.3 85.9 10/20/18
10/20/18 2100 57.8 50 39.4 0.8 WNW | 297 3.6 WNW | 286 0.00 0 0.00 44.3 85.9 10/20/18
10/20/18 2000 61.8 45 40.0 1.2 NW | 314 2.9 NNW | 330 0.00 0 0.00 44.3 85.9 10/20/18
10/20/18 1900 69.8 39 43.1 0.6 NNW | 336 3.1 NNW | 342 0.00 1 0.00 44.3 85.9 10/20/18
10/20/18 1800 81.3 23 40.1 2.2 WSW | 240 6.6 WSW | 254 0.00 13 0.00 44.3 85.9 10/20/18
10/20/18 1700 84.1 21 39.6 3.8 SW | 217 7.8 SSW | 197 0.00 28 0.00 44.3 85.9 10/20/18
10/20/18 1600 84.8 20 38.8 3.3 SE | 141 7.6 SE | 135 0.00 40 0.00 44.3 85.7 10/20/18
10/20/18 1500 84.9 20 39.1 3.3 SSE | 148 7.6 ESE | 114 0.00 49 0.00 44.3 85.5 10/20/18
10/20/18 1400 82.8 22 39.9 2.5 SE | 132 6.3 ESE | 121 0.00 53 0.00 44.3 84.5 10/20/18
10/20/18 1300 80.2 26 42.3 2.7 SE | 128 6.8 ESE | 117 0.00 53 0.00 44.3 81.7 10/20/18
10/20/18 1200 75.1 35 45.6 2.1 SE | 127 6.4 ESE | 116 0.00 48 0.00 44.3 77.8 10/20/18
10/20/18 1100 68.8 49 48.7 1.7 SE | 138 5.4 SSE | 159 0.00 39 0.00 44.3 72.1 10/20/18
10/20/18 1000 63.8 48 44.0 0.3 ENE | 73 2.6 E | 91 0.00 26 0.00 44.3 65.1 10/20/18
10/20/18 0900 55.1 63 42.7 0.3 W | 274 2.1 W | 278 0.00 13 0.00 44.3 60.0 10/20/18
10/20/18 0800 48.4 76 41.2 2.0 NW | 318 4.1 NW | 321 0.00 1 0.00 44.3 55.4 10/20/18
10/20/18 0700 48.4 76 41.4 1.9 NW | 318 4.1 WNW | 296 0.00 0 0.00 44.3 55.4 10/20/18
10/20/18 0600 47.3 80 41.6 1.4 NW | 318 3.6 WNW | 285 0.00 0 0.00 44.3 55.4 10/20/18
10/20/18 0500 45.1 86 41.0 0.6 NNW | 342 2.6 N | 354 0.00 0 0.00 44.3 55.4 10/20/18
10/20/18 0400 46.3 82 41.3 0.2 NW | 322 2.4 NW | 323 0.00 0 0.00 44.5 55.4 10/20/18
10/20/18 0300 47.9 80 41.9 0.2 NW | 317 1.6 WNW | 283 0.00 0 0.00 46.8 55.4 10/20/18
10/20/18 0200 51.6 72 42.7 0.5 WNW | 295 2.2 NW | 311 0.00 0 0.00 49.3 55.4 10/20/18
10/20/18 0100 54.2 66 43.3 0.8 NW | 314 3.1 NW | 316 0.00 0 0.00 53.0 55.4 10/20/18
10/20/18 0000 56.6 61 43.2 1.4 NW | 315 4.9 NNW | 333 0.00 0 0.00 44.4 86.7 10/19/18
10/19/18 2300 58.0 58 43.3 2.0 NW | 316 5.1 WNW | 301 0.00 0 0.00 44.4 86.7 10/19/18
10/19/18 2200 59.1 56 43.3 1.8 NW | 317 4.3 N | 0 0.00 0 0.00 44.4 86.7 10/19/18
10/19/18 2100 60.1 55 43.6 1.0 NW | 322 3.1 W | 275 0.00 0 0.00 44.4 86.7 10/19/18
10/19/18 2000 63.8 50 45.1 0.9 NNW | 328 3.4 NW | 309 0.00 0 0.00 44.4 86.7 10/19/18
10/19/18 1900 73.7 34 43.4 1.1 S | 188 4.1 SSE | 161 0.00 1 0.00 44.4 86.7 10/19/18
10/19/18 1800 83.1 24 42.1 1.9 SSW | 210 5.6 SW | 223 0.00 13 0.00 44.4 86.7 10/19/18
10/19/18 1700 86.1 18 37.5 2.2 SSE | 153 6.8 SSW | 192 0.00 27 0.00 44.4 86.7 10/19/18
10/19/18 1600 85.6 18 38.0 2.5 SSE | 158 5.9 SSW | 196 0.00 40 0.00 44.4 86.3 10/19/18
10/19/18 1500 85.4 18 37.1 3.3 S | 184 8.1 SSW | 192 0.00 49 0.00 44.4 86.3 10/19/18
10/19/18 1400 83.3 21 39.3 2.4 S | 179 7.6 S | 186 0.00 54 0.00 44.4 85.1 10/19/18
10/19/18 1300 79.4 30 44.8 1.9 SE | 142 5.3 SSE | 159 0.00 53 0.00 44.4 81.8 10/19/18
10/19/18 1200 72.6 38 45.3 2.0 ESE | 114 5.4 ESE | 111 0.00 48 0.00 44.4 76.1 10/19/18
10/19/18 1100 67.7 42 43.9 2.2 SSE | 151 5.4 S | 177 0.00 38 0.00 44.4 70.2 10/19/18
10/19/18 1000 62.9 52 44.6 1.1 SSE | 148 4.4 SSE | 152 0.00 26 0.00 44.4 66.0 10/19/18
10/19/18 0900 52.2 73 43.8 0.2 NNW | 333 2.1 N | 350 0.00 13 0.00 44.4 57.4 10/19/18
10/19/18 0800 47.2 82 42.2 1.4 NW | 323 2.9 WNW | 301 0.00 1 0.00 44.4 54.1 10/19/18
10/19/18 0700 46.8 83 42.0 1.2 NNW | 337 3.6 N | 350 0.00 0 0.00 44.4 54.1 10/19/18
10/19/18 0600 47.2 82 42.2 1.0 NW | 320 3.3 N | 352 0.00 0 0.00 44.4 54.1 10/19/18
10/19/18 0500 45.3 85 41.1 1.1 NNW | 336 3.8 NNW | 334 0.00 0 0.00 44.4 54.1 10/19/18
10/19/18 0400 45.5 84 41.0 0.2 NNW | 333 1.9 NE | 52 0.00 0 0.00 44.8 54.1 10/19/18
10/19/18 0300 47.1 80 41.1 0.2 NNE | 21 1.9 W | 275 0.00 0 0.00 45.8 54.1 10/19/18
10/19/18 0200 49.5 76 42.1 0.4 NW | 309 2.7 NW | 315 0.00 0 0.00 48.5 54.1 10/19/18
10/19/18 0100 52.6 71 43.4 0.7 NW | 308 2.2 NNW | 336 0.00 0 0.00 51.2 54.1 10/19/18
10/19/18 0000 54.5 67 43.8 1.2 NW | 309 3.3 NW | 318 0.00 0 0.00 40.5 84.0 10/18/18
10/18/18 2300 55.9 64 43.7 1.6 NW | 310 3.6 NW | 323 0.00 0 0.00 40.5 84.0 10/18/18
10/18/18 2200 57.1 60 43.5 1.3 NW | 309 4.1 NNW | 343 0.00 0 0.00 40.5 84.0 10/18/18
10/18/18 2100 57.9 59 43.6 1.0 NW | 313 3.4 WNW | 303 0.00 0 0.00 40.5 84.0 10/18/18
10/18/18 2000 61.3 55 44.9 0.4 NW | 325 2.2 NW | 305 0.00 0 0.00 40.5 84.0 10/18/18
10/18/18 1900 72.4 36 43.4 1.0 WSW | 258 4.6 SW | 231 0.00 1 0.00 40.5 84.0 10/18/18
10/18/18 1800 80.3 26 42.2 2.2 SSW | 212 6.1 SSW | 203 0.00 14 0.00 40.5 84.0 10/18/18
10/18/18 1700 82.8 21 39.4 2.7 SSE | 165 5.6 SSW | 199 0.00 28 0.00 40.5 84.0 10/18/18
10/18/18 1600 82.7 21 38.5 2.1 SSE | 168 5.8 ESE | 113 0.00 40 0.00 40.5 84.0 10/18/18
10/18/18 1500 82.0 24 41.9 2.0 SSE | 160 5.8 S | 188 0.00 49 0.00 40.5 82.9 10/18/18
10/18/18 1400 78.8 29 43.6 2.3 S | 173 7.3 ESE | 114 0.00 54 0.00 40.5 80.7 10/18/18
10/18/18 1300 74.8 36 45.9 2.7 SSE | 168 6.8 SSE | 147 0.00 53 0.00 40.5 77.2 10/18/18
10/18/18 1200 69.9 42 45.8 3.1 SE | 128 7.1 SE | 135 0.00 48 0.00 40.5 72.3 10/18/18
10/18/18 1100 65.2 49 45.6 2.0 SE | 143 6.1 SSE | 157 0.00 39 0.00 40.5 67.5 10/18/18
10/18/18 1000 60.3 57 44.8 0.6 SE | 130 2.6 SSE | 159 0.00 27 0.00 40.5 63.0 10/18/18
10/18/18 0900 49.1 80 43.2 0.2 NW | 319 1.7 NW | 315 0.00 13 0.00 40.5 54.5 10/18/18
10/18/18 0800 41.8 88 38.6 0.2 NW | 308 1.7 NNW | 330 0.00 1 0.00 40.5 45.9 10/18/18
10/18/18 0700 41.6 87 38.1 0.6 NW | 318 2.1 NNW | 327 0.00 0 0.00 40.9 45.9 10/18/18
10/18/18 0600 41.7 85 37.5 0.4 NNW | 330 2.4 WNW | 284 0.00 0 0.00 41.3 45.9 10/18/18
10/18/18 0500 42.2 82 37.2 0.2 NNW | 340 2.1 NNW | 342 0.00 0 0.00 41.4 45.9 10/18/18
10/18/18 0400 43.6 80 37.8 0.4 NNW | 337 2.7 N | 351 0.00 0 0.00 42.7 45.9 10/18/18
10/18/18 0300 44.5 78 37.9 0.5 NNW | 335 2.1 NNW | 342 0.00 0 0.00 43.4 45.9 10/18/18
10/18/18 0200 44.8 75 37.5 0.3 NNW | 332 2.1 NNW | 330 0.00 0 0.00 43.4 45.9 10/18/18
10/18/18 0100 44.5 72 36.0 0.1 NNW | 342 2.7 N | 354 0.00 0 0.00 43.4 45.9 10/18/18
10/18/18 0000 46.4 68 36.4 0.0 N | 358 1.4 NNW | 346 0.00 0 0.00 40.1 82.9 10/17/18
10/17/18 2300 48.3 65 37.0 0.1 NNW | 338 1.6 NNW | 329 0.00 0 0.00 40.1 82.9 10/17/18
10/17/18 2200 50.7 59 36.9 0.1 WNW | 298 1.7 W | 281 0.00 0 0.00 40.1 82.9 10/17/18
10/17/18 2100 55.2 53 38.5 0.2 NNW | 343 2.4 NNW | 348 0.00 0 0.00 40.1 82.9 10/17/18
10/17/18 2000 60.5 46 39.5 0.4 NW | 306 2.7 WNW | 289 0.00 0 0.00 40.1 82.9 10/17/18
10/17/18 1900 70.0 31 38.2 1.1 SSW | 202 3.6 S | 180 0.00 1 0.00 40.1 82.9 10/17/18
10/17/18 1800 78.3 26 40.1 3.1 SW | 216 5.6 SW | 216 0.00 14 0.00 40.1 82.9 10/17/18
10/17/18 1700 82.0 18 34.2 2.5 S | 175 6.3 S | 169 0.00 28 0.00 40.1 82.9 10/17/18
10/17/18 1600 82.0 17 32.9 2.5 S | 180 6.1 S | 169 0.00 41 0.00 40.1 82.9 10/17/18
10/17/18 1500 81.6 18 34.2 3.2 SSE | 157 8.4 S | 170 0.00 50 0.00 40.1 82.7 10/17/18
10/17/18 1400 79.8 21 36.1 3.6 SSE | 163 8.3 ESE | 107 0.00 55 0.00 40.1 80.7 10/17/18
10/17/18 1300 76.7 27 39.8 3.2 SSE | 150 7.6 SSE | 151 0.00 54 0.00 40.1 78.9 10/17/18
10/17/18 1200 70.9 35 41.8 2.2 SSE | 154 6.3 SE | 129 0.00 49 0.00 40.1 73.7 10/17/18
10/17/18 1100 66.0 39 40.0 1.6 SE | 139 4.8 E | 96 0.00 40 0.00 40.1 68.9 10/17/18
10/17/18 1000 60.1 40 35.9 0.5 SSE | 154 2.4 SSE | 151 0.00 28 0.00 40.1 63.7 10/17/18
10/17/18 0900 48.8 59 35.1 0.8 NW | 325 2.6 NNW | 332 0.00 14 0.00 40.1 54.7 10/17/18
10/17/18 0800 41.5 72 33.1 0.5 NW | 312 2.7 WNW | 298 0.00 1 0.00 40.1 46.2 10/17/18
10/17/18 0700 42.1 70 32.9 0.7 NW | 311 2.7 NW | 321 0.00 0 0.00 40.9 46.2 10/17/18
10/17/18 0600 43.2 67 32.9 1.0 NW | 319 3.1 NW | 321 0.00 0 0.00 40.9 46.2 10/17/18
10/17/18 0500 41.9 68 32.3 0.7 NNW | 331 2.4 NW | 323 0.00 0 0.00 40.9 46.2 10/17/18
10/17/18 0400 41.9 66 31.3 0.1 WNW | 288 2.7 W | 270 0.00 0 0.00 41.0 46.2 10/17/18
10/17/18 0300 43.6 63 31.9 0.5 NNW | 343 3.1 ENE | 70 0.00 0 0.00 42.5 46.2 10/17/18
10/17/18 0200 44.6 60 31.6 0.2 N | 350 2.1 NW | 324 0.00 0 0.00 43.4 46.2 10/17/18
10/17/18 0100 45.3 57 31.0 0.2 N | 4 2.4 NE | 36 0.00 0 0.00 44.4 46.2 10/17/18
10/17/18 0000 48.1 52 31.3 0.3 NW | 323 1.9 NW | 323 0.00 0 0.00 39.6 86.4 10/16/18
10/16/18 2300 50.1 48 31.3 0.6 NW | 314 2.9 WNW | 292 0.00 0 0.00 39.6 86.4 10/16/18
10/16/18 2200 52.6 43 30.7 0.4 NNW | 328 3.6 NNW | 329 0.00 0 0.00 39.6 86.4 10/16/18
10/16/18 2100 56.4 37 30.5 0.4 NNW | 331 2.2 N | 0 0.00 0 0.00 39.6 86.4 10/16/18
10/16/18 2000 64.8 28 30.0 0.5 WNW | 295 3.1 NNW | 331 0.00 0 0.00 39.6 86.4 10/16/18
10/16/18 1900 76.0 14 23.6 6.7 W | 262 16.3 WSW | 246 0.00 1 0.00 39.6 86.4 10/16/18
10/16/18 1800 81.1 14 26.7 5.9 WSW | 250 13.6 WNW | 291 0.00 15 0.00 39.6 86.4 10/16/18
10/16/18 1700 84.7 12 27.2 4.0 SW | 214 8.0 SSW | 202 0.00 30 0.00 39.6 86.4 10/16/18
10/16/18 1600 85.3 13 28.8 3.5 SSW | 207 7.3 SW | 226 0.00 42 0.00 39.6 86.4 10/16/18
10/16/18 1500 85.3 13 28.5 3.1 S | 180 7.1 SW | 235 0.00 51 0.00 39.6 86.3 10/16/18
10/16/18 1400 83.5 14 29.3 2.6 SSE | 150 6.4 ESE | 118 0.00 56 0.00 39.6 85.0 10/16/18
10/16/18 1300 80.3 18 33.2 3.2 S | 172 11.1 SSW | 195 0.00 55 0.00 39.6 82.0 10/16/18
10/16/18 1200 75.4 22 34.0 2.5 SE | 138 6.6 SE | 143 0.00 50 0.00 39.6 78.3 10/16/18
10/16/18 1100 69.7 21 28.3 1.3 SE | 136 4.6 ESE | 118 0.00 41 0.00 39.6 72.6 10/16/18
10/16/18 1000 64.1 25 27.9 0.7 ESE | 110 3.4 E | 83 0.00 28 0.00 39.6 66.7 10/16/18
10/16/18 0900 50.8 39 26.7 0.1 NW | 308 1.9 WNW | 285 0.00 15 0.00 39.6 58.7 10/16/18
10/16/18 0800 42.1 51 25.3 1.3 NNW | 344 3.1 NE | 35 0.00 2 0.00 39.6 51.2 10/16/18
10/16/18 0700 40.6 56 25.9 0.5 NNW | 333 3.1 NNE | 18 0.00 0 0.00 39.6 51.2 10/16/18
10/16/18 0600 42.4 51 25.6 0.8 NNW | 330 2.9 NE | 47 0.00 0 0.00 41.4 51.2 10/16/18
10/16/18 0500 43.8 49 25.9 0.7 NW | 313 3.1 WSW | 254 0.00 0 0.00 42.0 51.2 10/16/18
10/16/18 0400 42.8 53 26.8 0.8 N | 351 3.6 NE | 42 0.00 0 0.00 42.0 51.2 10/16/18
10/16/18 0300 46.4 45 26.1 0.6 NW | 316 3.3 W | 269 0.00 0 0.00 43.3 51.2 10/16/18
10/16/18 0200 50.0 38 25.5 1.4 NW | 325 4.6 NW | 319 0.00 0 0.00 48.7 51.2 10/16/18
10/16/18 0100 49.6 39 25.6 1.8 NW | 323 4.4 NNW | 333 0.00 0 0.00 48.7 50.5 10/16/18
10/16/18 0000 51.7 36 25.3 1.5 NW | 317 4.4 NW | 318 0.00 0 0.00 49.4 86.7 10/15/18
10/15/18 2300 53.6 32 24.4 1.9 NW | 315 3.8 WNW | 293 0.00 0 0.00 52.7 86.7 10/15/18
10/15/18 2200 55.0 30 23.7 1.9 NW | 312 4.3 NNW | 334 0.00 0 0.00 54.0 86.7 10/15/18
10/15/18 2100 56.3 29 24.1 1.4 NNW | 327 3.9 NNW | 347 0.00 0 0.00 54.6 86.7 10/15/18
10/15/18 2000 61.3 24 24.2 0.9 NW | 312 3.3 N | 353 0.00 0 0.00 57.6 86.7 10/15/18
10/15/18 1900 73.7 12 17.2 2.4 SSW | 210 6.1 SW | 224 0.00 2 0.00 63.4 86.7 10/15/18
10/15/18 1800 82.4 9 16.6 3.1 SSW | 212 6.6 SW | 227 0.00 16 0.00 63.4 86.7 10/15/18
10/15/18 1700 85.1 7 12.5 3.0 SSE | 152 7.4 ESE | 122 0.00 31 0.00 63.4 86.7 10/15/18
10/15/18 1600 85.7 6 12.0 2.6 ESE | 115 8.1 SSE | 154 0.00 44 0.00 63.4 86.7 10/15/18
10/15/18 1500 85.2 6 11.3 3.0 E | 95 8.4 ESE | 111 0.00 53 0.00 63.4 86.7 10/15/18
10/15/18 1400 84.6 6 10.3 2.8 SSE | 151 6.6 S | 175 0.00 58 0.00 63.4 86.0 10/15/18
10/15/18 1300 81.8 6 9.4 2.1 S | 188 6.6 S | 184 0.00 57 0.00 63.4 83.5 10/15/18
10/15/18 1200 77.9 7 9.8 3.7 NNW | 335 9.0 WNW | 303 0.00 52 0.00 63.4 79.9 10/15/18
Tip: Bookmark this page for easy future reference